createdAt,value
2023-05-22T00:00:21.617Z,40.56
2023-05-22T00:02:50.758Z,40.94
2023-05-22T00:05:18.416Z,41.06
2023-05-22T00:07:46.760Z,41.08
2023-05-22T00:10:13.737Z,40.51
2023-05-22T00:12:40.723Z,40.92
2023-05-22T00:15:09.248Z,41.00
2023-05-22T00:17:36.569Z,41.17
2023-05-22T00:20:06.781Z,40.43
2023-05-22T00:22:36.597Z,41.23
2023-05-22T00:25:06.808Z,41.10
2023-05-22T00:27:34.371Z,41.15
2023-05-22T00:30:01.691Z,40.71
2023-05-22T00:32:29.078Z,40.94
2023-05-22T00:34:56.073Z,41.10
2023-05-22T00:37:23.119Z,40.60
2023-05-22T00:39:50.125Z,41.30
2023-05-22T00:42:18.876Z,40.92
2023-05-22T00:44:45.977Z,40.73
2023-05-22T00:47:12.983Z,40.78
2023-05-22T00:49:40.604Z,40.96
2023-05-22T00:52:09.015Z,41.57
2023-05-22T00:54:36.794Z,41.36
2023-05-22T00:57:05.145Z,40.95
2023-05-22T00:59:33.595Z,41.42
2023-05-22T01:02:01.527Z,41.17
2023-05-22T01:04:32.711Z,41.07
2023-05-22T01:07:02.741Z,41.78
2023-05-22T01:09:29.987Z,41.37
2023-05-22T01:12:05.952Z,41.45
2023-05-22T01:14:53.535Z,41.33
2023-05-22T01:17:34.593Z,41.33
2023-05-22T01:20:16.858Z,41.92
2023-05-22T01:23:26.164Z,41.86
2023-05-22T01:26:11.402Z,41.66
2023-05-22T01:29:00.881Z,42.41
2023-05-22T01:31:33.813Z,42.20
2023-05-22T01:34:03.212Z,42.46
2023-05-22T01:36:35.101Z,42.10
2023-05-22T01:39:05.985Z,42.86
2023-05-22T01:41:34.069Z,42.24
2023-05-22T01:44:03.064Z,42.78
2023-05-22T01:46:31.635Z,43.13
2023-05-22T01:48:59.126Z,43.24
2023-05-22T01:51:39.542Z,42.81
2023-05-22T01:54:18.016Z,42.94
2023-05-22T01:56:54.761Z,43.28
2023-05-22T01:59:32.847Z,43.00
2023-05-22T02:02:07.509Z,43.12
2023-05-22T02:05:00.618Z,43.37
2023-05-22T02:07:37.721Z,43.44
2023-05-22T02:10:08.432Z,43.32
2023-05-22T02:12:36.380Z,43.46
2023-05-22T02:15:06.053Z,43.70
2023-05-22T02:17:40.200Z,43.67
2023-05-22T02:20:15.186Z,44.10
2023-05-22T02:22:44.364Z,44.13
2023-05-22T02:25:14.352Z,43.76
2023-05-22T02:27:41.964Z,44.08
2023-05-22T02:30:09.944Z,43.79
2023-05-22T02:32:38.966Z,43.96
2023-05-22T02:35:06.719Z,43.81
2023-05-22T02:37:34.004Z,44.25
2023-05-22T02:40:01.008Z,44.42
2023-05-22T02:42:27.949Z,44.30
2023-05-22T02:44:54.866Z,44.00
2023-05-22T02:47:21.788Z,44.13
2023-05-22T02:49:50.108Z,44.22
2023-05-22T02:52:17.109Z,44.17
2023-05-22T02:54:44.329Z,44.51
2023-05-22T02:57:11.338Z,44.19
2023-05-22T02:59:38.707Z,44.19
2023-05-22T03:02:06.260Z,44.22
2023-05-22T03:04:34.038Z,44.37
2023-05-22T03:07:02.676Z,44.30
2023-05-22T03:09:29.688Z,44.29
2023-05-22T03:11:56.593Z,44.05
2023-05-22T03:14:23.602Z,44.22
2023-05-22T03:16:50.705Z,44.22
2023-05-22T03:19:17.875Z,44.49
2023-05-22T03:21:44.775Z,43.98
2023-05-22T03:24:13.037Z,43.61
2023-05-22T03:26:39.955Z,44.21
2023-05-22T03:29:06.881Z,43.88
2023-05-22T03:31:34.598Z,44.02
2023-05-22T03:34:02.203Z,43.80
2023-05-22T03:36:32.308Z,43.66
2023-05-22T03:38:59.474Z,43.92
2023-05-22T03:41:27.918Z,43.93
2023-05-22T03:43:54.808Z,43.99
2023-05-22T03:46:21.985Z,44.01
2023-05-22T03:48:48.936Z,43.80
2023-05-22T03:51:18.079Z,43.64
2023-05-22T03:53:46.232Z,43.56
2023-05-22T03:56:13.142Z,43.40
2023-05-22T03:58:41.388Z,43.79
2023-05-22T04:01:09.827Z,43.48
2023-05-22T04:03:37.094Z,43.71
2023-05-22T04:06:05.773Z,43.56
2023-05-22T04:08:33.018Z,43.32
2023-05-22T04:11:00.049Z,43.37
2023-05-22T04:13:27.723Z,43.22
2023-05-22T04:15:56.683Z,43.03
2023-05-22T04:18:23.685Z,43.39
2023-05-22T04:20:51.790Z,43.50
2023-05-22T04:23:18.826Z,43.21
2023-05-22T04:25:47.753Z,43.32
2023-05-22T04:28:17.453Z,43.25
2023-05-22T04:30:44.701Z,43.12
2023-05-22T04:33:13.453Z,43.33
2023-05-22T04:35:40.861Z,43.20
2023-05-22T04:38:07.855Z,43.74
2023-05-22T04:40:34.906Z,43.03
2023-05-22T04:43:01.893Z,43.73
2023-05-22T04:45:29.479Z,43.54
2023-05-22T04:47:56.599Z,43.64
2023-05-22T04:50:25.026Z,43.21
2023-05-22T04:52:53.342Z,43.29
2023-05-22T04:55:39.796Z,43.24
2023-05-22T04:58:28.446Z,43.24
2023-05-22T05:01:13.294Z,43.22
2023-05-22T05:03:40.298Z,43.21
2023-05-22T05:06:08.652Z,43.19
2023-05-22T05:08:35.641Z,43.25
2023-05-22T05:11:02.602Z,43.43
2023-05-22T05:13:29.577Z,42.88
2023-05-22T05:15:59.212Z,42.91
2023-05-22T05:18:26.591Z,42.49
2023-05-22T05:20:53.873Z,42.50
2023-05-22T05:23:22.272Z,43.23
2023-05-22T05:25:49.192Z,42.74
2023-05-22T05:28:16.092Z,43.00
2023-05-22T05:30:43.191Z,42.58
2023-05-22T05:33:10.331Z,42.60
2023-05-22T05:35:37.333Z,42.55
2023-05-22T05:38:04.272Z,41.77
2023-05-22T05:40:32.520Z,41.27
2023-05-22T05:42:59.506Z,41.45
2023-05-22T05:45:26.450Z,41.46
2023-05-22T05:47:53.402Z,41.67
2023-05-22T05:50:20.926Z,41.86
2023-05-22T05:52:47.895Z,41.15
2023-05-22T05:55:15.016Z,40.83
2023-05-22T05:57:43.425Z,41.12
2023-05-22T06:00:11.979Z,41.54
2023-05-22T06:02:39.028Z,41.59
2023-05-22T06:05:06.994Z,40.94
2023-05-22T06:07:34.295Z,41.51
2023-05-22T06:10:01.254Z,40.98
2023-05-22T06:12:28.260Z,40.62
2023-05-22T06:14:56.792Z,40.83
2023-05-22T06:17:23.900Z,41.15
2023-05-22T06:19:50.960Z,41.17
2023-05-22T06:22:17.983Z,40.21
2023-05-22T06:24:44.908Z,40.85
2023-05-22T06:27:11.802Z,40.58
2023-05-22T06:29:38.679Z,40.98
2023-05-22T06:32:07.902Z,40.80
2023-05-22T06:34:35.731Z,40.72
2023-05-22T06:37:04.028Z,40.64
2023-05-22T06:39:32.101Z,40.18
2023-05-22T06:41:59.196Z,40.12
2023-05-22T06:44:26.100Z,40.28
2023-05-22T06:46:53.192Z,40.18
2023-05-22T06:49:21.441Z,40.13
2023-05-22T06:51:48.415Z,40.17
2023-05-22T06:54:28.609Z,40.59
2023-05-22T06:56:55.687Z,40.55
2023-05-22T06:59:24.348Z,40.18
2023-05-22T07:02:05.405Z,40.21
2023-05-22T07:04:39.838Z,39.59
2023-05-22T07:07:09.795Z,39.80
2023-05-22T07:09:37.496Z,39.58
2023-05-22T07:12:06.524Z,39.51
2023-05-22T07:14:33.811Z,39.44
2023-05-22T07:17:01.128Z,39.39
2023-05-22T07:19:28.732Z,39.62
2023-05-22T07:21:58.729Z,39.02
2023-05-22T07:24:25.716Z,39.02
2023-05-22T07:26:52.643Z,39.42
2023-05-22T07:29:20.779Z,38.82
2023-05-22T07:31:49.417Z,39.04
2023-05-22T07:34:16.812Z,38.88
2023-05-22T07:36:43.806Z,38.89
2023-05-22T07:39:12.123Z,38.88
2023-05-22T07:41:39.818Z,37.58
2023-05-22T07:44:07.309Z,37.36
2023-05-22T07:46:37.440Z,37.29
2023-05-22T07:49:04.519Z,37.51
2023-05-22T07:51:32.050Z,37.72
2023-05-22T07:56:32.458Z,37.43
2023-05-22T07:59:01.035Z,37.65
2023-05-22T08:01:27.959Z,38.22
2023-05-22T08:03:54.970Z,39.13
2023-05-22T08:06:23.684Z,39.25
2023-05-22T08:08:52.948Z,39.28
2023-05-22T08:11:20.014Z,39.75
2023-05-22T08:13:48.621Z,39.46
2023-05-22T08:16:15.747Z,39.74
2023-05-22T08:18:42.706Z,40.04
2023-05-22T08:21:09.622Z,39.99
2023-05-22T08:23:38.390Z,40.01
2023-05-22T08:26:08.695Z,40.26
2023-05-22T08:28:36.715Z,41.29
2023-05-22T08:31:05.180Z,41.20
2023-05-22T08:33:32.128Z,41.61
2023-05-22T08:35:59.054Z,41.65
2023-05-22T08:38:25.981Z,41.19
2023-05-22T08:40:57.021Z,42.01
2023-05-22T08:43:24.577Z,41.87
2023-05-22T08:45:59.566Z,41.15
2023-05-22T08:48:33.457Z,41.67
2023-05-22T08:51:04.789Z,42.11
2023-05-22T08:53:35.491Z,42.20
2023-05-22T08:56:04.895Z,42.43
2023-05-22T08:58:34.575Z,42.74
2023-05-22T09:01:03.393Z,42.74
2023-05-22T09:03:35.038Z,42.97
2023-05-22T09:06:04.503Z,42.85
2023-05-22T09:08:31.413Z,42.83
2023-05-22T09:10:58.440Z,41.92
2023-05-22T09:13:27.523Z,42.32
2023-05-22T09:15:59.491Z,41.85
2023-05-22T09:18:29.550Z,41.90
2023-05-22T09:21:03.697Z,42.04
2023-05-22T09:23:33.833Z,42.18
2023-05-22T09:26:02.740Z,42.12
2023-05-22T09:28:35.016Z,42.03
2023-05-22T09:31:04.401Z,42.22
2023-05-22T09:33:32.247Z,42.21
2023-05-22T09:36:01.435Z,43.03
2023-05-22T09:38:30.110Z,42.76
2023-05-22T09:40:57.156Z,43.29
2023-05-22T09:43:25.566Z,43.08
2023-05-22T09:45:58.129Z,43.37
2023-05-22T09:48:25.543Z,43.02
2023-05-22T09:50:54.585Z,43.18
2023-05-22T09:53:27.991Z,42.52
2023-05-22T09:55:57.964Z,42.87
2023-05-22T09:58:27.831Z,42.40
2023-05-22T10:00:56.469Z,42.72
2023-05-22T10:03:26.495Z,42.60
2023-05-22T10:05:56.781Z,42.64
2023-05-22T10:08:28.632Z,42.22
2023-05-22T10:10:56.064Z,42.24
2023-05-22T10:13:26.097Z,41.75
2023-05-22T10:15:54.345Z,41.63
2023-05-22T10:18:23.050Z,41.21
2023-05-22T10:20:50.704Z,41.08
2023-05-22T10:23:18.656Z,41.15
2023-05-22T10:25:47.282Z,41.50
2023-05-22T10:28:21.522Z,41.06
2023-05-22T10:31:00.309Z,41.04
2023-05-22T10:33:36.665Z,41.19
2023-05-22T10:36:08.595Z,41.57
2023-05-22T10:38:53.804Z,41.59
2023-05-22T10:41:23.368Z,41.94
2023-05-22T10:43:51.255Z,41.94
2023-05-22T10:46:18.912Z,42.22
2023-05-22T10:48:47.870Z,41.94
2023-05-22T10:51:19.280Z,42.03
2023-05-22T10:53:53.200Z,42.04
2023-05-22T10:56:25.122Z,42.04
2023-05-22T10:59:05.034Z,41.65
2023-05-22T11:01:37.732Z,41.69
2023-05-22T11:04:15.941Z,41.18
2023-05-22T11:06:46.003Z,41.50
2023-05-22T11:09:26.729Z,41.34
2023-05-22T11:12:18.350Z,41.48
2023-05-22T11:14:54.102Z,41.10
2023-05-22T11:17:23.441Z,41.49
2023-05-22T11:20:00.048Z,41.35
2023-05-22T11:22:35.983Z,41.69
2023-05-22T11:25:10.622Z,41.44
2023-05-22T11:27:41.735Z,41.60
2023-05-22T11:30:10.945Z,41.47
2023-05-22T11:32:41.170Z,41.48
2023-05-22T11:35:08.945Z,41.36
2023-05-22T11:37:39.764Z,41.29
2023-05-22T11:40:08.717Z,41.50
2023-05-22T11:42:38.360Z,41.63
2023-05-22T11:45:07.143Z,41.36
2023-05-22T11:47:34.706Z,41.55
2023-05-22T11:50:02.290Z,41.36
2023-05-22T11:52:33.366Z,41.87
2023-05-22T11:55:00.674Z,42.00
2023-05-22T11:57:28.269Z,41.78
2023-05-22T11:59:56.568Z,41.97
2023-05-22T12:02:23.584Z,41.59
2023-05-22T12:04:55.573Z,41.93
2023-05-22T12:07:25.852Z,41.99
2023-05-22T12:09:55.740Z,41.78
2023-05-22T12:12:23.358Z,41.95
2023-05-22T12:14:50.476Z,41.73
2023-05-22T12:17:20.180Z,41.82
2023-05-22T12:19:47.673Z,41.86
2023-05-22T12:22:14.963Z,41.72
2023-05-22T12:24:46.045Z,41.83
2023-05-22T12:27:14.421Z,41.89
2023-05-22T12:29:43.013Z,42.05
2023-05-22T12:32:12.280Z,42.15
2023-05-22T12:34:45.911Z,42.33
2023-05-22T12:37:21.053Z,42.33
2023-05-22T12:39:56.342Z,42.70
2023-05-22T12:42:23.658Z,42.84
2023-05-22T12:44:53.872Z,42.96
2023-05-22T12:47:23.378Z,42.81
2023-05-22T12:49:52.377Z,42.85
2023-05-22T12:52:19.670Z,42.96
2023-05-22T12:54:46.685Z,42.87
2023-05-22T12:57:13.739Z,42.97
2023-05-22T12:59:40.780Z,42.90
2023-05-22T13:02:08.152Z,43.07
2023-05-22T13:04:35.448Z,42.94
2023-05-22T13:07:03.944Z,42.93
2023-05-22T13:09:30.928Z,43.11
2023-05-22T13:11:57.951Z,42.94
2023-05-22T13:14:25.032Z,43.05
2023-05-22T13:16:51.984Z,43.27
2023-05-22T13:19:19.044Z,43.21
2023-05-22T13:21:46.030Z,42.88
2023-05-22T13:24:14.357Z,43.26
2023-05-22T13:26:41.280Z,43.18
2023-05-22T13:29:08.275Z,43.02
2023-05-22T13:31:37.425Z,42.68
2023-05-22T13:34:05.429Z,42.52
2023-05-22T13:36:33.012Z,42.54
2023-05-22T13:39:00.127Z,43.13
2023-05-22T13:41:28.588Z,42.76
2023-05-22T13:43:55.546Z,43.31
2023-05-22T13:46:22.791Z,43.66
2023-05-22T13:48:49.866Z,43.62
2023-05-22T13:51:17.005Z,43.65
2023-05-22T13:53:44.226Z,43.36
2023-05-22T13:56:11.217Z,43.96
2023-05-22T13:58:39.490Z,44.30
2023-05-22T14:01:06.416Z,45.17
2023-05-22T14:03:33.605Z,45.64
2023-05-22T14:06:00.737Z,46.07
2023-05-22T14:08:27.846Z,45.59
2023-05-22T14:10:54.855Z,44.96
2023-05-22T14:13:21.931Z,44.83
2023-05-22T14:15:50.407Z,44.77
2023-05-22T14:18:17.506Z,44.62
2023-05-22T14:20:45.970Z,45.47
2023-05-22T14:23:14.167Z,44.77
2023-05-22T14:25:43.195Z,44.86
2023-05-22T14:28:10.463Z,44.45
2023-05-22T14:30:38.078Z,44.59
2023-05-22T14:33:07.208Z,43.74
2023-05-22T14:35:34.730Z,43.30
2023-05-22T14:38:02.002Z,43.01
2023-05-22T14:40:28.941Z,42.60
2023-05-22T14:42:59.520Z,41.83
2023-05-22T14:45:26.456Z,42.03
2023-05-22T14:47:54.506Z,41.40
2023-05-22T14:50:22.937Z,40.79
2023-05-22T14:52:50.086Z,40.43
2023-05-22T14:55:17.896Z,39.80
2023-05-22T14:57:45.099Z,41.03
2023-05-22T15:00:14.103Z,41.36
2023-05-22T15:02:41.295Z,40.42
2023-05-22T15:05:09.615Z,39.30
2023-05-22T15:10:09.875Z,40.14
2023-05-22T15:12:37.005Z,40.04
2023-05-22T15:15:04.869Z,40.33
2023-05-22T15:17:32.462Z,41.33
2023-05-22T15:19:59.651Z,41.51
2023-05-22T15:22:26.670Z,41.51
2023-05-22T15:25:06.372Z,41.85
2023-05-22T15:27:35.006Z,42.50
2023-05-22T15:30:02.831Z,41.89
2023-05-22T15:32:32.164Z,40.57
2023-05-22T15:34:59.278Z,40.47
2023-05-22T15:37:26.877Z,41.03
2023-05-22T15:39:53.950Z,40.38
2023-05-22T15:42:22.291Z,41.08
2023-05-22T15:44:49.309Z,40.60
2023-05-22T15:47:16.649Z,40.53
2023-05-22T15:49:43.589Z,40.33
2023-05-22T15:52:10.651Z,40.79
2023-05-22T15:54:37.752Z,40.50
2023-05-22T15:57:05.222Z,39.70
2023-05-22T15:59:33.615Z,39.93
2023-05-22T16:02:00.747Z,39.78
2023-05-22T16:04:27.854Z,39.86
2023-05-22T16:06:54.913Z,39.74
2023-05-22T16:09:21.898Z,40.14
2023-05-22T16:11:49.170Z,39.70
2023-05-22T16:14:16.209Z,40.06
2023-05-22T16:16:44.559Z,39.37
2023-05-22T16:19:11.625Z,40.18
2023-05-22T16:21:38.954Z,41.03
2023-05-22T16:24:06.986Z,41.32
2023-05-22T16:26:34.101Z,41.05
2023-05-22T16:29:01.507Z,41.07
2023-05-22T16:31:29.878Z,41.24
2023-05-22T16:33:58.130Z,41.62
2023-05-22T16:36:26.445Z,41.66
2023-05-22T16:38:54.237Z,41.53
2023-05-22T16:41:22.828Z,41.45
2023-05-22T16:43:50.308Z,41.71
2023-05-22T16:46:18.528Z,41.84
2023-05-22T16:48:45.518Z,41.74
2023-05-22T16:51:13.920Z,41.85
2023-05-22T16:53:41.718Z,42.10
2023-05-22T16:56:08.845Z,42.54
2023-05-22T16:58:35.874Z,42.74
2023-05-22T17:01:03.203Z,42.74
2023-05-22T17:03:30.208Z,43.20
2023-05-22T17:05:57.367Z,43.36
2023-05-22T17:08:28.269Z,43.49
2023-05-22T17:10:55.690Z,43.86
2023-05-22T17:13:22.663Z,44.13
2023-05-22T17:15:50.909Z,44.44
2023-05-22T17:18:22.222Z,44.53
2023-05-22T17:20:51.124Z,44.87
2023-05-22T17:23:18.313Z,45.18
2023-05-22T17:25:46.953Z,45.50
2023-05-22T17:28:14.365Z,45.21
2023-05-22T17:30:42.245Z,45.41
2023-05-22T17:33:09.668Z,45.64
2023-05-22T17:35:36.749Z,45.78
2023-05-22T17:38:03.690Z,45.59
2023-05-22T17:40:40.391Z,45.63
2023-05-22T17:43:11.914Z,45.77
2023-05-22T17:45:39.640Z,45.60
2023-05-22T17:48:07.405Z,45.29
2023-05-22T17:50:34.447Z,45.41
2023-05-22T17:53:01.388Z,45.80
2023-05-22T17:55:28.363Z,45.80
2023-05-22T17:57:55.974Z,45.46
2023-05-22T18:00:24.363Z,45.58
2023-05-22T18:02:51.407Z,45.91
2023-05-22T18:05:18.579Z,46.21
2023-05-22T18:07:45.585Z,45.49
2023-05-22T18:10:12.576Z,45.57
2023-05-22T18:12:39.558Z,45.79
2023-05-22T18:15:09.529Z,46.22
2023-05-22T18:17:37.906Z,46.05
2023-05-22T18:20:09.227Z,46.90
2023-05-22T18:22:38.716Z,47.13
2023-05-22T18:25:07.785Z,46.76
2023-05-22T18:27:35.381Z,47.42
2023-05-22T18:30:03.462Z,47.18
2023-05-22T18:32:30.808Z,47.25
2023-05-22T18:34:59.672Z,47.22
2023-05-22T18:37:26.805Z,47.72
2023-05-22T18:39:53.866Z,48.58
2023-05-22T18:42:21.100Z,48.47
2023-05-22T18:44:49.333Z,49.19
2023-05-22T18:47:16.828Z,49.45
2023-05-22T18:49:44.550Z,50.20
2023-05-22T18:52:12.937Z,49.61
2023-05-22T18:54:40.025Z,50.32
2023-05-22T18:57:06.978Z,50.22
2023-05-22T18:59:33.984Z,50.16
2023-05-22T19:02:00.941Z,49.84
2023-05-22T19:04:27.978Z,50.61
2023-05-22T19:06:56.354Z,50.62
2023-05-22T19:09:24.717Z,49.72
2023-05-22T19:11:51.764Z,49.63
2023-05-22T19:14:18.782Z,49.55
2023-05-22T19:16:45.822Z,49.67
2023-05-22T19:19:14.546Z,49.97
2023-05-22T19:21:41.662Z,50.29
2023-05-22T19:24:08.627Z,49.59
2023-05-22T19:26:36.976Z,49.52
2023-05-22T19:29:03.965Z,49.50
2023-05-22T19:31:31.206Z,49.63
2023-05-22T19:33:58.406Z,50.04
2023-05-22T19:36:25.617Z,49.23
2023-05-22T19:38:53.701Z,49.51
2023-05-22T19:41:22.718Z,49.83
2023-05-22T19:43:51.652Z,49.47
2023-05-22T19:46:18.753Z,50.39
2023-05-22T19:48:45.832Z,49.77
2023-05-22T19:51:12.908Z,50.71
2023-05-22T19:53:41.076Z,50.84
2023-05-22T19:56:08.129Z,50.26
2023-05-22T19:58:35.082Z,50.91
2023-05-22T20:01:03.365Z,50.49
2023-05-22T20:03:30.407Z,50.93
2023-05-22T20:05:57.579Z,50.98
2023-05-22T20:08:25.332Z,50.77
2023-05-22T20:10:52.625Z,51.15
2023-05-22T20:13:19.630Z,51.35
2023-05-22T20:15:51.253Z,50.97
2023-05-22T20:18:20.731Z,50.88
2023-05-22T20:20:47.806Z,51.13
2023-05-22T20:23:14.795Z,51.11
2023-05-22T20:25:42.040Z,51.04
2023-05-22T20:28:09.168Z,51.15
2023-05-22T20:30:36.187Z,51.18
2023-05-22T20:33:03.393Z,51.47
2023-05-22T20:35:32.156Z,51.08
2023-05-22T20:38:04.183Z,51.24
2023-05-22T20:40:34.566Z,51.66
2023-05-22T20:43:04.578Z,51.62
2023-05-22T20:45:32.182Z,51.79
2023-05-22T20:47:59.274Z,51.69
2023-05-22T20:50:27.054Z,51.81
2023-05-22T20:52:55.412Z,51.64
2023-05-22T20:55:22.464Z,52.11
2023-05-22T20:57:49.395Z,52.41
2023-05-22T21:00:16.969Z,52.65
2023-05-22T21:02:44.068Z,52.67
2023-05-22T21:05:11.149Z,52.74
2023-05-22T21:07:38.143Z,53.40
2023-05-22T21:10:09.581Z,53.11
2023-05-22T21:12:36.533Z,53.40
2023-05-22T21:15:04.283Z,53.48
2023-05-22T21:17:31.715Z,53.40
2023-05-22T21:19:58.697Z,53.78
2023-05-22T21:22:25.765Z,53.52
2023-05-22T21:24:52.729Z,53.41
2023-05-22T21:27:20.973Z,53.23
2023-05-22T21:29:47.956Z,53.16
2023-05-22T21:32:15.030Z,53.36
2023-05-22T21:34:41.956Z,53.25
2023-05-22T21:37:09.154Z,53.36
2023-05-22T21:39:36.117Z,53.36
2023-05-22T21:42:03.793Z,53.51
2023-05-22T21:44:32.747Z,53.39
2023-05-22T21:46:59.802Z,53.88
2023-05-22T21:49:26.921Z,53.66
2023-05-22T21:51:53.850Z,53.76
2023-05-22T21:54:21.081Z,53.54
2023-05-22T21:56:48.047Z,53.80
2023-05-22T21:59:15.093Z,53.80
2023-05-22T22:01:43.491Z,53.87
2023-05-22T22:04:10.497Z,53.74
2023-05-22T22:06:37.788Z,53.79
2023-05-22T22:09:04.897Z,53.90
2023-05-22T22:11:31.911Z,53.75
2023-05-22T22:13:58.861Z,53.76
2023-05-22T22:16:26.055Z,53.45
2023-05-22T22:18:54.527Z,53.57
2023-05-22T22:21:26.830Z,53.65
2023-05-22T22:23:53.758Z,53.64
2023-05-22T22:26:20.842Z,53.26
2023-05-22T22:28:47.771Z,53.45
2023-05-22T22:31:14.674Z,53.12
2023-05-22T22:33:41.567Z,53.40
2023-05-22T22:36:09.865Z,53.19
2023-05-22T22:38:38.352Z,53.32
2023-05-22T22:41:08.551Z,53.23
2023-05-22T22:43:36.005Z,53.11
2023-05-22T22:46:02.971Z,53.39
2023-05-22T22:48:29.949Z,53.19
2023-05-22T22:50:58.006Z,53.25
2023-05-22T22:53:26.322Z,52.97
2023-05-22T22:55:56.735Z,53.49
2023-05-22T22:58:23.849Z,53.27
2023-05-22T23:00:50.828Z,53.36
2023-05-22T23:03:17.758Z,53.21
2023-05-22T23:05:45.018Z,53.21
2023-05-22T23:08:12.306Z,52.82
2023-05-22T23:10:40.575Z,52.70
2023-05-22T23:13:07.512Z,52.74
2023-05-22T23:15:34.547Z,53.12
2023-05-22T23:18:01.588Z,52.91
2023-05-22T23:20:28.584Z,53.29
2023-05-22T23:22:55.528Z,53.10
2023-05-22T23:25:22.509Z,53.17
2023-05-22T23:27:52.012Z,52.98
2023-05-22T23:30:19.293Z,53.13
2023-05-22T23:32:46.362Z,53.16
2023-05-22T23:35:13.378Z,53.51
2023-05-22T23:37:40.409Z,53.23
2023-05-22T23:40:09.540Z,53.13
2023-05-22T23:42:37.311Z,53.40
2023-05-22T23:45:07.427Z,53.24
2023-05-22T23:47:34.449Z,53.06
2023-05-22T23:50:01.779Z,53.57
2023-05-22T23:52:28.698Z,53.43
2023-05-22T23:54:55.619Z,53.00
2023-05-22T23:57:22.688Z,53.21
2023-05-22T23:59:49.672Z,52.95
